createdAt,value
2022-09-25T00:01:21.347Z,94762.06
2022-09-25T00:03:51.120Z,94756.16
2022-09-25T00:06:21.102Z,94762.66
2022-09-25T00:08:50.044Z,94760.91
2022-09-25T00:11:20.018Z,94748.31
2022-09-25T00:13:48.481Z,94755.81
2022-09-25T00:16:18.356Z,94745.38
2022-09-25T00:19:04.321Z,94754.44
2022-09-25T00:21:35.257Z,94756.25
2022-09-25T00:24:06.144Z,94744.84
2022-09-25T00:26:36.600Z,94738.72
2022-09-25T00:29:05.665Z,94736.31
2022-09-25T00:31:34.084Z,94730.84
2022-09-25T00:34:03.903Z,94731.38
2022-09-25T00:36:34.045Z,94726.66
2022-09-25T00:39:02.326Z,94723.91
2022-09-25T00:41:31.976Z,94734.19
2022-09-25T00:44:02.243Z,94737.56
2022-09-25T00:46:33.002Z,94731.47
2022-09-25T00:49:04.115Z,94737.19
2022-09-25T00:51:38.915Z,94738.75
2022-09-25T00:54:09.555Z,94727.53
2022-09-25T00:56:40.809Z,94732.69
2022-09-25T00:59:12.382Z,94725.19
2022-09-25T01:01:40.342Z,94729.13
2022-09-25T01:04:08.738Z,94720.66
2022-09-25T01:06:38.214Z,94729.91
2022-09-25T01:09:06.554Z,94719.47
2022-09-25T01:11:34.573Z,94730.28
2022-09-25T01:14:07.022Z,94724.16
2022-09-25T01:16:39.839Z,94713.72
2022-09-25T01:19:20.718Z,94705.97
2022-09-25T01:21:54.029Z,94709.31
2022-09-25T01:24:43.872Z,94706.63
2022-09-25T01:27:34.535Z,94697.16
2022-09-25T01:30:07.883Z,94709.50
2022-09-25T01:32:45.761Z,94707.75
2022-09-25T01:35:20.602Z,94710.88
2022-09-25T01:37:56.124Z,94702.22
2022-09-25T01:40:33.538Z,94700.69
2022-09-25T01:43:10.413Z,94710.38
2022-09-25T01:45:43.981Z,94713.38
2022-09-25T01:48:16.874Z,94703.72
2022-09-25T01:50:50.792Z,94709.25
2022-09-25T01:53:23.911Z,94706.25
2022-09-25T01:55:56.167Z,94700.72
2022-09-25T01:58:28.996Z,94704.25
2022-09-25T02:01:04.990Z,94698.16
2022-09-25T02:03:39.726Z,94708.06
2022-09-25T02:06:16.113Z,94705.50
2022-09-25T02:08:48.024Z,94711.81
2022-09-25T02:11:15.820Z,94706.47
2022-09-25T02:13:49.505Z,94714.91
2022-09-25T02:16:23.990Z,94713.16
2022-09-25T02:19:09.469Z,94709.19
2022-09-25T02:21:46.747Z,94717.72
2022-09-25T02:24:21.486Z,94730.66
2022-09-25T02:26:50.935Z,94737.97
2022-09-25T02:29:19.720Z,94728.94
2022-09-25T02:31:53.556Z,94737.41
2022-09-25T02:34:24.919Z,94742.16
2022-09-25T02:36:52.782Z,94737.03
2022-09-25T02:39:26.671Z,94737.81
2022-09-25T02:42:10.313Z,94725.63
2022-09-25T02:44:49.648Z,94727.22
2022-09-25T02:47:33.076Z,94716.94
2022-09-25T02:50:10.109Z,94711.03
2022-09-25T02:52:45.656Z,94701.31
2022-09-25T02:55:18.805Z,94702.53
2022-09-25T02:57:52.560Z,94711.59
2022-09-25T03:00:23.465Z,94702.69
2022-09-25T03:02:56.328Z,94695.22
2022-09-25T03:05:26.324Z,94700.00
2022-09-25T03:08:12.493Z,94690.94
2022-09-25T03:10:41.275Z,94691.72
2022-09-25T03:13:20.834Z,94691.56
2022-09-25T03:15:52.955Z,94691.56
2022-09-25T03:18:22.363Z,94681.72
2022-09-25T03:20:50.169Z,94677.81
2022-09-25T03:23:17.993Z,94679.00
2022-09-25T03:25:49.925Z,94670.72
2022-09-25T03:28:19.072Z,94674.06
2022-09-25T03:30:57.105Z,94678.41
2022-09-25T03:33:27.755Z,94679.97
2022-09-25T03:36:03.549Z,94679.94
2022-09-25T03:38:31.513Z,94679.16
2022-09-25T03:40:59.411Z,94679.16
2022-09-25T03:43:27.307Z,94684.88
2022-09-25T03:45:55.214Z,94674.25
2022-09-25T03:48:23.162Z,94676.63
2022-09-25T03:50:53.326Z,94679.38
2022-09-25T03:53:21.227Z,94669.34
2022-09-25T03:55:49.064Z,94673.88
2022-09-25T03:58:17.077Z,94663.25
2022-09-25T04:00:46.976Z,94678.78
2022-09-25T04:03:15.110Z,94671.72
2022-09-25T04:05:43.487Z,94677.03
2022-09-25T04:08:12.769Z,94669.53
2022-09-25T04:10:40.607Z,94672.88
2022-09-25T04:13:14.154Z,94666.63
2022-09-25T04:15:43.247Z,94660.53
2022-09-25T04:18:11.029Z,94654.03
2022-09-25T04:20:39.324Z,94662.06
2022-09-25T04:23:07.158Z,94649.06
2022-09-25T04:25:36.588Z,94665.22
2022-09-25T04:28:05.194Z,94671.09
2022-09-25T04:30:32.983Z,94662.19
2022-09-25T04:33:18.574Z,94653.91
2022-09-25T04:35:46.336Z,94660.78
2022-09-25T04:38:14.107Z,94664.13
2022-09-25T04:40:43.611Z,94662.56
2022-09-25T04:43:11.384Z,94667.09
2022-09-25T04:45:39.336Z,94664.16
2022-09-25T04:48:07.622Z,94662.16
2022-09-25T04:50:35.463Z,94665.56
2022-09-25T04:53:04.021Z,94664.53
2022-09-25T04:55:32.228Z,94673.03
2022-09-25T04:58:02.485Z,94672.03
2022-09-25T05:00:32.635Z,94667.69
2022-09-25T05:03:00.661Z,94677.31
2022-09-25T05:05:30.497Z,94673.75
2022-09-25T05:07:59.682Z,94665.47
2022-09-25T05:10:30.234Z,94677.06
2022-09-25T05:12:59.229Z,94671.53
2022-09-25T05:15:31.660Z,94661.88
2022-09-25T05:18:03.897Z,94671.34
2022-09-25T05:20:31.839Z,94674.09
2022-09-25T05:23:00.259Z,94663.44
2022-09-25T05:25:28.124Z,94655.09
2022-09-25T05:27:58.445Z,94658.25
2022-09-25T05:30:29.185Z,94668.09
2022-09-25T05:32:58.910Z,94660.59
2022-09-25T05:35:28.715Z,94659.78
2022-09-25T05:37:56.530Z,94664.13
2022-09-25T05:40:25.171Z,94664.72
2022-09-25T05:42:55.307Z,94677.31
2022-09-25T05:45:24.234Z,94659.56
2022-09-25T05:48:02.956Z,94656.38
2022-09-25T05:50:32.315Z,94666.66
2022-09-25T05:53:01.789Z,94663.66
2022-09-25T05:55:30.418Z,94661.97
2022-09-25T05:58:01.526Z,94667.31
2022-09-25T06:00:29.475Z,94667.66
2022-09-25T06:02:57.263Z,94667.81
2022-09-25T06:05:26.482Z,94664.69
2022-09-25T06:07:55.251Z,94668.81
2022-09-25T06:10:23.323Z,94666.63
2022-09-25T06:12:52.056Z,94672.50
2022-09-25T06:15:19.832Z,94673.84
2022-09-25T06:17:47.568Z,94674.41
2022-09-25T06:20:16.509Z,94678.94
2022-09-25T06:22:45.790Z,94676.56
2022-09-25T06:25:15.727Z,94672.19
2022-09-25T06:27:43.661Z,94679.69
2022-09-25T06:30:12.333Z,94667.78
2022-09-25T06:32:40.134Z,94668.47
2022-09-25T06:35:08.361Z,94669.84
2022-09-25T06:37:36.136Z,94667.59
2022-09-25T06:40:06.010Z,94667.56
2022-09-25T06:42:35.166Z,94681.53
2022-09-25T06:45:02.939Z,94676.19
2022-09-25T06:47:30.790Z,94671.44
2022-09-25T06:49:58.537Z,94671.78
2022-09-25T06:52:26.605Z,94669.31
2022-09-25T06:54:54.370Z,94672.44
2022-09-25T06:57:23.503Z,94670.34
2022-09-25T06:59:51.268Z,94663.34
2022-09-25T07:02:36.772Z,94678.63
2022-09-25T07:05:05.239Z,94673.38
2022-09-25T07:07:33.108Z,94690.09
2022-09-25T07:10:01.201Z,94684.88
2022-09-25T07:12:34.185Z,94699.34
2022-09-25T07:15:01.992Z,94719.94
2022-09-25T07:17:29.857Z,94722.53
2022-09-25T07:19:57.707Z,94718.34
2022-09-25T07:22:25.711Z,94715.00
2022-09-25T07:24:53.594Z,94721.06
2022-09-25T07:27:21.552Z,94727.31
2022-09-25T07:29:50.809Z,94714.16
2022-09-25T07:32:19.762Z,94718.47
2022-09-25T07:34:51.010Z,94717.47
2022-09-25T07:37:19.440Z,94686.91
2022-09-25T07:39:47.191Z,94713.31
2022-09-25T07:42:14.997Z,94715.69
2022-09-25T07:44:47.484Z,94719.22
2022-09-25T07:47:19.531Z,94722.38
2022-09-25T07:49:47.618Z,94717.22
2022-09-25T07:52:15.415Z,94717.72
2022-09-25T07:54:43.812Z,94703.44
2022-09-25T07:57:13.218Z,94708.66
2022-09-25T07:59:41.211Z,94700.25
2022-09-25T08:02:11.053Z,94704.28
2022-09-25T08:04:40.270Z,94704.97
2022-09-25T08:07:08.101Z,94705.63
2022-09-25T08:09:35.899Z,94709.78
2022-09-25T08:12:03.724Z,94706.50
2022-09-25T08:14:32.871Z,94701.44
2022-09-25T08:17:00.773Z,94701.00
2022-09-25T08:19:28.834Z,94711.78
2022-09-25T08:21:58.028Z,94700.81
2022-09-25T08:24:25.760Z,94697.91
2022-09-25T08:26:53.712Z,94702.38
2022-09-25T08:29:21.556Z,94708.88
2022-09-25T08:31:49.337Z,94703.84
2022-09-25T08:34:39.497Z,94719.19
2022-09-25T08:37:08.313Z,94726.69
2022-09-25T08:39:36.217Z,94725.13
2022-09-25T08:42:05.747Z,94719.81
2022-09-25T08:44:39.003Z,94714.31
2022-09-25T08:47:30.351Z,94707.38
2022-09-25T08:50:04.286Z,94715.38
2022-09-25T08:52:34.969Z,94720.38
2022-09-25T08:55:02.859Z,94722.53
2022-09-25T08:57:37.490Z,94724.53
2022-09-25T09:00:09.357Z,94720.03
2022-09-25T09:02:42.792Z,94709.72
2022-09-25T09:05:18.392Z,94719.13
2022-09-25T09:07:53.539Z,94702.94
2022-09-25T09:10:29.494Z,94706.94
2022-09-25T09:13:02.658Z,94698.91
2022-09-25T09:15:36.768Z,94702.94
2022-09-25T09:18:18.444Z,94707.72
2022-09-25T09:20:52.304Z,94705.00
2022-09-25T09:23:23.891Z,94695.06
2022-09-25T09:26:01.188Z,94706.38
2022-09-25T09:28:51.975Z,94702.94
2022-09-25T09:31:25.469Z,94700.16
2022-09-25T09:34:04.669Z,94698.53
2022-09-25T09:36:39.285Z,94698.88
2022-09-25T09:39:18.783Z,94694.72
2022-09-25T09:41:58.204Z,94703.41
2022-09-25T09:44:51.376Z,94705.53
2022-09-25T09:47:39.396Z,94709.41
2022-09-25T09:50:24.327Z,94702.34
2022-09-25T09:52:59.359Z,94710.56
2022-09-25T09:55:42.324Z,94705.84
2022-09-25T09:58:19.740Z,94700.22
2022-09-25T10:00:49.180Z,94695.75
2022-09-25T10:03:23.613Z,94694.44
2022-09-25T10:05:56.345Z,94698.78
2022-09-25T10:08:24.287Z,94704.81
2022-09-25T10:10:55.025Z,94712.03
2022-09-25T10:13:25.414Z,94714.06
2022-09-25T10:16:01.992Z,94711.78
2022-09-25T10:18:32.920Z,94706.56
2022-09-25T10:21:06.882Z,94709.31
2022-09-25T10:23:40.376Z,94711.03
2022-09-25T10:26:28.579Z,94711.63
2022-09-25T10:28:59.268Z,94705.97
2022-09-25T10:31:30.741Z,94710.97
2022-09-25T10:34:02.345Z,94700.75
2022-09-25T10:36:37.381Z,94714.47
2022-09-25T10:39:31.411Z,94713.94
2022-09-25T10:42:00.423Z,94716.34
2022-09-25T10:44:34.528Z,94710.00
2022-09-25T10:47:48.379Z,94713.94
2022-09-25T10:50:20.119Z,94724.25
2022-09-25T10:52:51.172Z,94718.09
2022-09-25T10:55:29.171Z,94709.66
2022-09-25T10:58:09.276Z,94718.41
2022-09-25T11:00:43.763Z,94711.16
2022-09-25T11:03:21.270Z,94713.59
2022-09-25T11:05:53.502Z,94714.94
2022-09-25T11:08:24.618Z,94700.75
2022-09-25T11:10:57.148Z,94704.69
2022-09-25T11:13:28.569Z,94714.31
2022-09-25T11:16:01.294Z,94704.09
2022-09-25T11:18:38.991Z,94711.38
2022-09-25T11:21:17.897Z,94689.91
2022-09-25T11:23:58.916Z,94700.09
2022-09-25T11:26:32.353Z,94697.81
2022-09-25T11:29:07.757Z,94712.53
2022-09-25T11:31:40.476Z,94684.81
2022-09-25T11:34:17.887Z,94691.44
2022-09-25T11:36:54.408Z,94686.78
2022-09-25T11:39:47.422Z,94692.03
2022-09-25T11:42:19.720Z,94690.00
2022-09-25T11:44:57.395Z,94691.56
2022-09-25T11:47:29.350Z,94686.81
2022-09-25T11:50:02.177Z,94687.25
2022-09-25T11:52:41.119Z,94678.13
2022-09-25T11:55:45.780Z,94689.19
2022-09-25T11:58:38.366Z,94681.19
2022-09-25T12:01:21.180Z,94677.44
2022-09-25T12:04:22.324Z,94674.63
2022-09-25T12:07:04.250Z,94671.78
2022-09-25T12:09:56.394Z,94665.78
2022-09-25T12:12:33.047Z,94668.69
2022-09-25T12:15:11.139Z,94670.03
2022-09-25T12:17:47.669Z,94673.78
2022-09-25T12:20:24.533Z,94664.09
2022-09-25T12:23:02.859Z,94667.22
2022-09-25T12:25:47.899Z,94660.25
2022-09-25T12:28:24.119Z,94664.59
2022-09-25T12:31:05.469Z,94659.03
2022-09-25T12:33:45.076Z,94652.22
2022-09-25T12:36:19.394Z,94644.44
2022-09-25T12:38:55.251Z,94647.59
2022-09-25T12:41:31.672Z,94649.84
2022-09-25T12:44:05.098Z,94649.22
2022-09-25T12:46:41.337Z,94644.69
2022-09-25T12:49:15.278Z,94645.72
2022-09-25T12:51:48.011Z,94641.50
2022-09-25T12:54:26.151Z,94634.69
2022-09-25T12:56:58.006Z,94635.59
2022-09-25T12:59:33.733Z,94636.16
2022-09-25T13:02:05.848Z,94636.66
2022-09-25T13:04:53.424Z,94633.16
2022-09-25T13:07:28.946Z,94630.53
2022-09-25T13:09:56.823Z,94639.47
2022-09-25T13:12:35.249Z,94621.38
2022-09-25T13:15:09.032Z,94625.13
2022-09-25T13:17:37.510Z,94624.59
2022-09-25T13:20:48.050Z,94621.81
2022-09-25T13:23:17.888Z,94632.22
2022-09-25T13:25:48.486Z,94623.97
2022-09-25T13:28:21.426Z,94617.13
2022-09-25T13:31:09.133Z,94620.84
2022-09-25T13:33:49.427Z,94599.00
2022-09-25T13:36:42.668Z,94599.31
2022-09-25T13:39:39.482Z,94594.56
2022-09-25T13:42:15.804Z,94596.69
2022-09-25T13:45:06.501Z,94576.66
2022-09-25T13:48:03.008Z,94572.84
2022-09-25T13:55:13.566Z,94579.78
2022-09-25T13:58:03.503Z,94574.53
2022-09-25T14:00:55.418Z,94565.63
2022-09-25T14:03:37.867Z,94567.53
2022-09-25T14:06:10.659Z,94568.41
2022-09-25T14:08:42.602Z,94561.59
2022-09-25T14:11:14.775Z,94573.38
2022-09-25T14:13:45.749Z,94565.53
2022-09-25T14:16:25.925Z,94559.47
2022-09-25T14:18:55.414Z,94553.31
2022-09-25T14:21:33.631Z,94556.66
2022-09-25T14:24:15.288Z,94553.69
2022-09-25T14:26:51.349Z,94552.31
2022-09-25T14:29:23.608Z,94559.94
2022-09-25T14:32:05.518Z,94560.69
2022-09-25T14:34:54.239Z,94558.78
2022-09-25T14:37:37.280Z,94567.31
2022-09-25T14:40:14.137Z,94562.50
2022-09-25T14:43:05.782Z,94562.72
2022-09-25T14:46:00.124Z,94555.13
2022-09-25T14:48:37.033Z,94561.38
2022-09-25T14:51:07.674Z,94560.47
2022-09-25T14:53:39.981Z,94566.75
2022-09-25T14:56:12.008Z,94566.06
2022-09-25T14:58:45.640Z,94547.03
2022-09-25T15:01:22.095Z,94565.50
2022-09-25T15:03:51.195Z,94567.31
2022-09-25T15:06:31.569Z,94570.53
2022-09-25T15:09:01.901Z,94563.19
2022-09-25T15:11:41.614Z,94564.38
2022-09-25T15:14:19.407Z,94576.78
2022-09-25T15:17:07.546Z,94563.53
2022-09-25T15:19:40.039Z,94569.25
2022-09-25T15:22:13.956Z,94568.00
2022-09-25T15:24:49.042Z,94564.09
2022-09-25T15:27:18.598Z,94571.72
2022-09-25T15:29:49.410Z,94564.09
2022-09-25T15:32:19.758Z,94577.56
2022-09-25T15:34:47.731Z,94569.72
2022-09-25T15:37:26.352Z,94562.78
2022-09-25T15:39:54.979Z,94569.50
2022-09-25T15:42:23.350Z,94569.13
2022-09-25T15:44:54.173Z,94558.31
2022-09-25T15:47:53.385Z,94565.69
2022-09-25T15:50:25.143Z,94566.75
2022-09-25T15:52:56.033Z,94574.16
2022-09-25T15:55:24.827Z,94572.75
2022-09-25T15:57:55.988Z,94574.88
2022-09-25T16:00:44.631Z,94584.19
2022-09-25T16:03:36.446Z,94571.44
2022-09-25T16:06:04.631Z,94574.13
2022-09-25T16:08:34.646Z,94567.28
2022-09-25T16:11:18.182Z,94572.44
2022-09-25T16:13:49.175Z,94569.09
2022-09-25T16:16:26.412Z,94573.63
2022-09-25T16:18:55.955Z,94578.22
2022-09-25T16:21:28.805Z,94583.13
2022-09-25T16:23:59.700Z,94564.09
2022-09-25T16:26:33.369Z,94571.84
2022-09-25T16:29:07.334Z,94581.41
2022-09-25T16:31:37.162Z,94574.56
2022-09-25T16:34:06.690Z,94569.53
2022-09-25T16:36:40.918Z,94571.13
2022-09-25T16:39:26.724Z,94573.50
2022-09-25T16:41:55.407Z,94574.72
2022-09-25T16:44:37.400Z,94579.41
2022-09-25T16:47:14.246Z,94560.59
2022-09-25T16:49:43.505Z,94563.97
2022-09-25T16:52:21.566Z,94560.94
2022-09-25T16:54:54.440Z,94558.47
2022-09-25T16:57:23.602Z,94550.09
2022-09-25T16:59:52.992Z,94556.47
2022-09-25T17:02:33.155Z,94559.72
2022-09-25T17:05:03.326Z,94556.44
2022-09-25T17:07:31.127Z,94555.09
2022-09-25T17:10:00.969Z,94552.88
2022-09-25T17:12:31.045Z,94557.56
2022-09-25T17:14:59.467Z,94559.91
2022-09-25T17:17:29.720Z,94560.38
2022-09-25T17:19:57.764Z,94565.75
2022-09-25T17:22:30.060Z,94564.38
2022-09-25T17:25:01.913Z,94564.84
2022-09-25T17:27:29.819Z,94564.38
2022-09-25T17:29:57.849Z,94567.06
2022-09-25T17:32:26.260Z,94563.34
2022-09-25T17:34:58.220Z,94569.50
2022-09-25T17:37:26.184Z,94565.59
2022-09-25T17:39:54.070Z,94545.00
2022-09-25T17:42:22.315Z,94565.50
2022-09-25T17:44:50.269Z,94568.28
2022-09-25T17:47:18.136Z,94569.50
2022-09-25T17:49:48.496Z,94563.78
2022-09-25T17:52:21.916Z,94571.16
2022-09-25T17:54:54.349Z,94554.16
2022-09-25T17:57:22.292Z,94591.75
2022-09-25T17:59:50.244Z,94567.94
2022-09-25T18:02:18.144Z,94567.00
2022-09-25T18:04:46.031Z,94570.31
2022-09-25T18:07:15.253Z,94576.00
2022-09-25T18:09:44.495Z,94582.28
2022-09-25T18:12:12.467Z,94581.94
2022-09-25T18:14:40.260Z,94580.78
2022-09-25T18:17:08.095Z,94595.78
2022-09-25T18:19:54.403Z,94592.88
2022-09-25T18:22:28.154Z,94602.56
2022-09-25T18:25:06.910Z,94591.28
2022-09-25T18:27:35.486Z,94592.38
2022-09-25T18:30:03.390Z,94598.28
2022-09-25T18:32:31.356Z,94604.78
2022-09-25T18:34:59.456Z,94603.31
2022-09-25T18:37:30.312Z,94605.00
2022-09-25T18:40:00.385Z,94588.34
2022-09-25T18:42:28.360Z,94603.22
2022-09-25T18:44:56.479Z,94582.66
2022-09-25T18:47:24.377Z,94603.22
2022-09-25T18:49:52.641Z,94597.28
2022-09-25T18:52:20.586Z,94599.06
2022-09-25T18:54:48.854Z,94598.06
2022-09-25T18:57:18.253Z,94596.16
2022-09-25T18:59:46.145Z,94597.50
2022-09-25T19:02:24.679Z,94593.72
2022-09-25T19:04:54.842Z,94598.44
2022-09-25T19:07:32.056Z,94600.56
2022-09-25T19:10:05.909Z,94612.78
2022-09-25T19:12:35.839Z,94608.00
2022-09-25T19:15:04.649Z,94602.75
2022-09-25T19:17:36.283Z,94601.72
2022-09-25T19:20:04.677Z,94607.22
2022-09-25T19:22:32.912Z,94621.19
2022-09-25T19:25:01.088Z,94620.06
2022-09-25T19:27:30.945Z,94597.44
2022-09-25T19:30:00.281Z,94617.78
2022-09-25T19:32:30.933Z,94606.91
2022-09-25T19:34:59.654Z,94612.94
2022-09-25T19:37:29.738Z,94610.94
2022-09-25T19:40:15.093Z,94609.78
2022-09-25T19:42:42.966Z,94609.34
2022-09-25T19:45:15.409Z,94626.00
2022-09-25T19:47:43.800Z,94617.50
2022-09-25T19:50:12.716Z,94618.75
2022-09-25T19:52:56.230Z,94629.34
2022-09-25T19:55:59.794Z,94612.25
2022-09-25T19:58:35.283Z,94627.34
2022-09-25T20:01:09.378Z,94641.69
2022-09-25T20:03:37.205Z,94631.41
2022-09-25T20:06:05.678Z,94633.06
2022-09-25T20:08:34.050Z,94637.13
2022-09-25T20:11:02.276Z,94627.56
2022-09-25T20:13:30.219Z,94625.06
2022-09-25T20:16:09.920Z,94620.22
2022-09-25T20:18:38.055Z,94624.78
2022-09-25T20:21:07.561Z,94623.22
2022-09-25T20:23:36.392Z,94622.06
2022-09-25T20:26:12.081Z,94621.44
2022-09-25T20:28:41.562Z,94623.13
2022-09-25T20:31:12.521Z,94613.53
2022-09-25T20:33:42.240Z,94612.16
2022-09-25T20:36:12.984Z,94616.16
2022-09-25T20:38:40.951Z,94616.78
2022-09-25T20:41:12.173Z,94623.59
2022-09-25T20:43:40.649Z,94632.50
2022-09-25T20:46:12.459Z,94626.63
2022-09-25T20:48:41.995Z,94627.47
2022-09-25T20:51:11.989Z,94627.00
2022-09-25T20:53:40.668Z,94630.19
2022-09-25T20:56:09.831Z,94627.31
2022-09-25T20:58:39.002Z,94626.53
2022-09-25T21:01:08.874Z,94626.63
2022-09-25T21:03:40.397Z,94621.91
2022-09-25T21:06:11.040Z,94627.19
2022-09-25T21:08:38.920Z,94629.19
2022-09-25T21:11:07.966Z,94624.53
2022-09-25T21:13:37.056Z,94621.91
2022-09-25T21:16:05.487Z,94623.13
2022-09-25T21:18:35.766Z,94627.41
2022-09-25T21:21:07.814Z,94617.34
2022-09-25T21:23:36.104Z,94622.94
2022-09-25T21:26:05.006Z,94617.22
2022-09-25T21:28:33.294Z,94633.91
2022-09-25T21:31:05.457Z,94639.50
2022-09-25T21:33:33.565Z,94640.72
2022-09-25T21:36:01.914Z,94649.19
2022-09-25T21:38:31.566Z,94638.84
2022-09-25T21:41:01.592Z,94633.00
2022-09-25T21:43:31.159Z,94636.06
2022-09-25T21:46:00.339Z,94629.50
2022-09-25T21:48:29.450Z,94632.78
2022-09-25T21:50:59.254Z,94610.59
2022-09-25T21:53:27.887Z,94631.50
2022-09-25T21:56:02.767Z,94621.66
2022-09-25T21:58:30.829Z,94623.91
2022-09-25T22:01:09.025Z,94621.34
2022-09-25T22:03:38.930Z,94626.22
2022-09-25T22:06:09.869Z,94620.91
2022-09-25T22:08:40.406Z,94621.44
2022-09-25T22:11:10.533Z,94627.72
2022-09-25T22:13:40.764Z,94616.00
2022-09-25T22:16:10.389Z,94625.78
2022-09-25T22:18:43.534Z,94631.41
2022-09-25T22:21:12.141Z,94629.81
2022-09-25T22:23:40.230Z,94629.34
2022-09-25T22:26:10.088Z,94637.91
2022-09-25T22:28:38.796Z,94633.91
2022-09-25T22:31:08.542Z,94628.75
2022-09-25T22:33:36.737Z,94634.47
2022-09-25T22:36:07.649Z,94629.47
2022-09-25T22:38:36.052Z,94625.66
2022-09-25T22:41:04.653Z,94629.59
2022-09-25T22:43:34.074Z,94634.41
2022-09-25T22:46:02.360Z,94637.94
2022-09-25T22:48:30.605Z,94627.66
2022-09-25T22:51:00.502Z,94623.06
2022-09-25T22:53:30.976Z,94628.69
2022-09-25T22:56:08.623Z,94623.63
2022-09-25T22:58:38.074Z,94620.06
2022-09-25T23:01:07.293Z,94620.59
2022-09-25T23:03:35.361Z,94613.69
2022-09-25T23:06:04.328Z,94609.34
2022-09-25T23:08:32.273Z,94621.34
2022-09-25T23:11:07.696Z,94614.84
2022-09-25T23:13:37.722Z,94609.22
2022-09-25T23:16:07.324Z,94600.06
2022-09-25T23:18:36.230Z,94604.78
2022-09-25T23:21:04.251Z,94607.69
2022-09-25T23:23:32.470Z,94605.28
2022-09-25T23:26:03.402Z,94612.41
2022-09-25T23:28:33.406Z,94601.41
2022-09-25T23:31:10.520Z,94605.88
2022-09-25T23:33:39.593Z,94606.00
2022-09-25T23:36:09.288Z,94605.09
2022-09-25T23:38:37.795Z,94600.38
2022-09-25T23:41:15.271Z,94599.59
2022-09-25T23:43:43.391Z,94595.81
2022-09-25T23:46:13.467Z,94602.59
2022-09-25T23:48:41.389Z,94593.88
2022-09-25T23:51:09.618Z,94592.31
2022-09-25T23:53:37.631Z,94588.69
2022-09-25T23:56:09.190Z,94591.75
2022-09-25T23:58:37.203Z,94588.91
